createdAt,value
2024-02-28T00:00:42.224Z,18.70
2024-02-28T00:03:08.838Z,20.58
2024-02-28T00:05:35.537Z,19.95
2024-02-28T00:08:02.096Z,20.95
2024-02-28T00:10:28.647Z,20.58
2024-02-28T00:12:55.247Z,24.23
2024-02-28T00:15:21.964Z,28.35
2024-02-28T00:17:52.586Z,17.15
2024-02-28T00:20:19.144Z,23.13
2024-02-28T00:22:45.730Z,24.50
2024-02-28T00:25:12.580Z,17.05
2024-02-28T00:27:39.214Z,19.98
2024-02-28T00:30:07.777Z,16.27
2024-02-28T00:32:34.574Z,20.63
2024-02-28T00:35:01.158Z,21.00
2024-02-28T00:37:28.056Z,17.15
2024-02-28T00:39:54.911Z,19.45
2024-02-28T00:42:21.452Z,19.17
2024-02-28T00:44:48.089Z,20.73
2024-02-28T00:47:14.710Z,16.48
2024-02-28T00:49:41.941Z,17.05
2024-02-28T00:52:08.548Z,22.48
2024-02-28T00:54:35.081Z,20.10
2024-02-28T00:57:01.686Z,17.77
2024-02-28T00:59:28.268Z,17.63
2024-02-28T01:01:54.784Z,18.38
2024-02-28T01:04:21.517Z,18.70
2024-02-28T01:06:48.187Z,18.85
2024-02-28T01:09:14.881Z,17.73
2024-02-28T01:11:41.505Z,16.65
2024-02-28T01:14:09.386Z,16.92
2024-02-28T01:16:36.020Z,19.20
2024-02-28T01:19:02.628Z,19.40
2024-02-28T01:21:29.160Z,13.93
2024-02-28T01:23:55.728Z,18.20
2024-02-28T01:26:23.393Z,17.65
2024-02-28T01:28:51.054Z,15.45
2024-02-28T01:31:17.550Z,15.77
2024-02-28T01:33:44.353Z,20.02
2024-02-28T01:36:12.457Z,18.48
2024-02-28T01:38:39.105Z,22.33
2024-02-28T01:41:06.477Z,17.75
2024-02-28T01:43:34.266Z,18.75
2024-02-28T01:46:02.441Z,17.92
2024-02-28T01:48:29.296Z,16.45
2024-02-28T01:50:55.826Z,19.42
2024-02-28T01:53:22.483Z,20.10
2024-02-28T01:55:49.006Z,25.15
2024-02-28T01:58:15.593Z,26.17
2024-02-28T02:00:42.805Z,20.00
2024-02-28T02:03:09.546Z,17.98
2024-02-28T02:05:36.062Z,16.13
2024-02-28T02:08:02.863Z,18.98
2024-02-28T02:10:29.448Z,17.15
2024-02-28T02:12:56.186Z,21.90
2024-02-28T02:15:22.922Z,19.55
2024-02-28T02:17:49.911Z,18.35
2024-02-28T02:20:17.033Z,15.48
2024-02-28T02:22:43.716Z,15.85
2024-02-28T02:25:10.315Z,25.85
2024-02-28T02:27:37.082Z,17.75
2024-02-28T02:30:04.854Z,19.83
2024-02-28T02:32:31.451Z,18.50
2024-02-28T02:34:58.196Z,17.30
2024-02-28T02:37:25.261Z,18.45
2024-02-28T02:39:52.450Z,14.68
2024-02-28T02:42:19.182Z,16.90
2024-02-28T02:44:45.866Z,18.83
2024-02-28T02:47:12.567Z,18.30
2024-02-28T02:49:39.246Z,18.95
2024-02-28T02:52:08.629Z,20.17
2024-02-28T02:54:35.237Z,20.08
2024-02-28T02:57:01.900Z,21.17
2024-02-28T02:59:28.468Z,17.83
2024-02-28T03:01:55.085Z,18.85
2024-02-28T03:04:21.663Z,19.38
2024-02-28T03:06:48.237Z,21.33
2024-02-28T03:09:14.939Z,19.63
2024-02-28T03:11:41.613Z,18.67
2024-02-28T03:14:08.132Z,18.80
2024-02-28T03:16:38.705Z,24.35
2024-02-28T03:19:06.284Z,23.00
2024-02-28T03:21:32.961Z,20.75
2024-02-28T03:23:59.542Z,19.35
2024-02-28T03:26:26.049Z,22.85
2024-02-28T03:28:52.546Z,18.80
2024-02-28T03:31:19.374Z,19.35
2024-02-28T03:33:48.064Z,21.83
2024-02-28T03:36:14.715Z,22.15
2024-02-28T03:38:41.977Z,20.92
2024-02-28T03:41:08.608Z,19.90
2024-02-28T03:43:35.348Z,22.30
2024-02-28T03:46:02.126Z,18.25
2024-02-28T03:48:28.721Z,22.05
2024-02-28T03:50:55.316Z,29.45
2024-02-28T03:53:21.884Z,24.58
2024-02-28T03:55:48.743Z,23.17
2024-02-28T03:58:16.002Z,26.05
2024-02-28T04:00:45.709Z,29.83
2024-02-28T04:03:12.603Z,30.38
2024-02-28T04:05:41.626Z,24.17
2024-02-28T04:08:08.207Z,24.27
2024-02-28T04:10:35.034Z,26.67
2024-02-28T04:13:04.341Z,25.48
2024-02-28T04:15:31.804Z,23.00
2024-02-28T04:17:58.352Z,24.63
2024-02-28T04:20:25.096Z,30.27
2024-02-28T04:22:51.701Z,24.67
2024-02-28T04:25:18.321Z,23.95
2024-02-28T04:27:48.263Z,28.17
2024-02-28T04:30:15.140Z,26.42
2024-02-28T04:32:44.904Z,25.58
2024-02-28T04:35:11.645Z,22.83
2024-02-28T04:37:38.099Z,23.88
2024-02-28T04:40:08.141Z,31.60
2024-02-28T04:42:34.809Z,23.98
2024-02-28T04:45:01.361Z,27.52
2024-02-28T04:47:33.677Z,29.20
2024-02-28T04:50:07.004Z,28.85
2024-02-28T04:52:34.111Z,25.85
2024-02-28T04:55:01.015Z,27.67
2024-02-28T04:57:28.677Z,28.02
2024-02-28T04:59:55.719Z,28.17
2024-02-28T05:02:26.883Z,26.35
2024-02-28T05:04:53.733Z,28.33
2024-02-28T05:07:20.528Z,26.98
2024-02-28T05:09:47.941Z,25.65
2024-02-28T05:12:14.569Z,30.25
2024-02-28T05:14:41.132Z,28.00
2024-02-28T05:17:10.170Z,33.05
2024-02-28T05:19:36.659Z,34.75
2024-02-28T05:22:04.089Z,31.35
2024-02-28T05:24:30.684Z,34.42
2024-02-28T05:26:57.179Z,28.00
2024-02-28T05:29:23.768Z,30.35
2024-02-28T05:31:50.274Z,30.77
2024-02-28T05:34:17.650Z,30.15
2024-02-28T05:36:44.386Z,28.60
2024-02-28T05:39:11.048Z,30.52
2024-02-28T05:41:37.868Z,31.10
2024-02-28T05:44:04.437Z,34.15
2024-02-28T05:46:31.813Z,30.48
2024-02-28T05:48:58.486Z,31.10
2024-02-28T05:51:25.048Z,35.50
2024-02-28T05:53:52.319Z,34.38
2024-02-28T05:56:21.149Z,33.33
2024-02-28T05:58:48.813Z,32.78
2024-02-28T06:01:19.857Z,33.95
2024-02-28T06:03:48.454Z,32.58
2024-02-28T06:06:15.363Z,30.73
2024-02-28T06:08:42.430Z,31.40
2024-02-28T06:11:14.320Z,27.73
2024-02-28T06:13:41.714Z,31.00
2024-02-28T06:16:09.196Z,32.70
2024-02-28T06:18:35.822Z,32.60
2024-02-28T06:21:02.818Z,33.70
2024-02-28T06:23:30.206Z,32.58
2024-02-28T06:26:00.219Z,36.53
2024-02-28T06:28:26.815Z,44.97
2024-02-28T06:30:53.406Z,35.10
2024-02-28T06:33:20.361Z,30.17
2024-02-28T06:35:47.059Z,34.95
2024-02-28T06:38:13.923Z,32.55
2024-02-28T06:40:40.674Z,30.73
2024-02-28T06:43:07.801Z,31.63
2024-02-28T06:45:34.452Z,37.65
2024-02-28T06:48:01.145Z,37.67
2024-02-28T06:50:27.697Z,34.35
2024-02-28T06:52:55.010Z,36.60
2024-02-28T06:55:22.159Z,36.08
2024-02-28T06:57:49.133Z,38.15
2024-02-28T07:00:17.411Z,36.53
2024-02-28T07:02:44.961Z,33.08
2024-02-28T07:05:11.419Z,35.47
2024-02-28T07:07:37.962Z,42.15
2024-02-28T07:10:05.670Z,33.78
2024-02-28T07:12:32.560Z,37.42
2024-02-28T07:14:59.336Z,36.90
2024-02-28T07:17:25.973Z,39.45
2024-02-28T07:19:52.454Z,35.63
2024-02-28T07:22:19.268Z,39.95
2024-02-28T07:24:45.917Z,39.53
2024-02-28T07:27:13.445Z,36.15
2024-02-28T07:29:41.029Z,35.05
2024-02-28T07:32:07.814Z,40.28
2024-02-28T07:34:35.036Z,42.40
2024-02-28T07:37:01.983Z,32.50
2024-02-28T07:39:28.594Z,37.08
2024-02-28T07:41:56.457Z,38.40
2024-02-28T07:44:23.775Z,40.03
2024-02-28T07:46:54.298Z,42.50
2024-02-28T07:49:20.859Z,43.45
2024-02-28T07:51:47.604Z,38.65
2024-02-28T07:54:14.261Z,38.70
2024-02-28T07:56:40.823Z,38.40
2024-02-28T07:59:07.715Z,41.80
2024-02-28T08:01:35.099Z,40.28
2024-02-28T08:04:03.375Z,41.33
2024-02-28T08:06:30.282Z,37.05
2024-02-28T08:08:57.363Z,39.83
2024-02-28T08:11:25.044Z,41.20
2024-02-28T08:13:51.884Z,38.97
2024-02-28T08:16:18.419Z,35.95
2024-02-28T08:18:45.774Z,37.58
2024-02-28T08:21:12.591Z,40.95
2024-02-28T08:23:39.983Z,42.40
2024-02-28T08:26:06.569Z,37.08
2024-02-28T08:28:33.286Z,38.78
2024-02-28T08:31:00.128Z,37.78
2024-02-28T08:33:27.567Z,37.22
2024-02-28T08:35:55.125Z,38.05
2024-02-28T08:38:22.007Z,35.55
2024-02-28T08:40:48.582Z,39.42
2024-02-28T08:43:15.302Z,39.83
2024-02-28T08:45:41.880Z,39.33
2024-02-28T08:48:08.991Z,41.40
2024-02-28T08:50:35.891Z,39.58
2024-02-28T08:53:03.261Z,35.83
2024-02-28T08:55:30.332Z,39.55
2024-02-28T08:57:57.113Z,34.78
2024-02-28T09:00:24.023Z,32.20
2024-02-28T09:02:50.760Z,34.35
2024-02-28T09:05:17.733Z,33.40
2024-02-28T09:07:44.332Z,34.42
2024-02-28T09:10:12.407Z,34.40
2024-02-28T09:12:39.455Z,31.30
2024-02-28T09:15:07.388Z,35.85
2024-02-28T09:17:33.973Z,25.27
2024-02-28T09:20:02.937Z,38.00
2024-02-28T09:22:29.753Z,32.38
2024-02-28T09:24:56.486Z,34.80
2024-02-28T09:27:23.299Z,32.30
2024-02-28T09:29:49.894Z,33.13
2024-02-28T09:32:16.770Z,35.97
2024-02-28T09:34:43.547Z,30.38
2024-02-28T09:37:10.194Z,29.90
2024-02-28T09:39:38.943Z,30.20
2024-02-28T09:42:06.495Z,31.88
2024-02-28T09:44:33.105Z,34.95
2024-02-28T09:46:59.647Z,43.55
2024-02-28T09:49:27.957Z,32.50
2024-02-28T09:51:55.327Z,34.58
2024-02-28T09:54:21.900Z,36.53
2024-02-28T09:56:49.282Z,36.58
2024-02-28T09:59:16.691Z,34.83
2024-02-28T10:01:47.769Z,31.60
2024-02-28T10:04:14.776Z,36.55
2024-02-28T10:06:41.928Z,36.20
2024-02-28T10:09:08.811Z,40.05
2024-02-28T10:11:36.757Z,35.58
2024-02-28T10:14:03.715Z,39.85
2024-02-28T10:16:30.684Z,36.38
2024-02-28T10:18:57.331Z,34.95
2024-02-28T10:21:25.461Z,41.33
2024-02-28T10:23:52.225Z,39.13
2024-02-28T10:26:19.007Z,43.47
2024-02-28T10:28:46.648Z,42.70
2024-02-28T10:31:13.760Z,35.75
2024-02-28T10:33:42.428Z,36.92
2024-02-28T10:36:09.022Z,38.45
2024-02-28T10:38:35.675Z,36.10
2024-02-28T10:41:03.330Z,39.22
2024-02-28T10:43:35.607Z,42.53
2024-02-28T10:48:32.137Z,40.92
2024-02-28T10:50:59.403Z,38.80
2024-02-28T10:53:39.845Z,37.13
2024-02-28T10:56:07.302Z,40.45
2024-02-28T10:58:38.309Z,37.63
2024-02-28T11:01:06.054Z,35.58
2024-02-28T11:03:33.015Z,39.67
2024-02-28T11:05:59.681Z,40.42
2024-02-28T11:08:27.675Z,32.22
2024-02-28T11:10:57.742Z,32.53
2024-02-28T11:13:28.384Z,31.92
2024-02-28T11:15:56.675Z,34.38
2024-02-28T11:18:25.855Z,31.67
2024-02-28T11:20:52.782Z,32.40
2024-02-28T11:23:19.680Z,28.55
2024-02-28T11:25:46.402Z,27.75
2024-02-28T11:28:13.115Z,29.08
2024-02-28T11:30:39.884Z,26.92
2024-02-28T11:33:09.439Z,28.05
2024-02-28T11:35:36.749Z,30.38
2024-02-28T11:38:03.198Z,30.95
2024-02-28T11:40:29.813Z,24.45
2024-02-28T11:42:57.617Z,26.92
2024-02-28T11:45:24.376Z,29.60
2024-02-28T11:47:50.922Z,26.08
2024-02-28T11:50:19.700Z,27.58
2024-02-28T11:52:46.715Z,25.67
2024-02-28T11:55:13.434Z,27.95
2024-02-28T11:57:40.430Z,25.58
2024-02-28T12:00:10.617Z,22.13
2024-02-28T12:02:37.333Z,23.80
2024-02-28T12:05:06.094Z,23.10
2024-02-28T12:07:32.933Z,23.50
2024-02-28T12:09:59.875Z,29.77
2024-02-28T12:12:28.027Z,28.52
2024-02-28T12:14:58.776Z,26.27
2024-02-28T12:17:26.326Z,25.08
2024-02-28T12:19:55.735Z,30.00
2024-02-28T12:22:25.124Z,30.60
2024-02-28T12:24:51.896Z,29.60
2024-02-28T12:27:18.710Z,25.75
2024-02-28T12:29:45.325Z,24.50
2024-02-28T12:32:13.305Z,23.90
2024-02-28T12:34:40.056Z,27.33
2024-02-28T12:37:06.931Z,27.30
2024-02-28T12:39:35.511Z,27.80
2024-02-28T12:42:02.545Z,25.58
2024-02-28T12:44:29.115Z,31.85
2024-02-28T12:46:55.590Z,25.67
2024-02-28T12:49:22.128Z,25.65
2024-02-28T12:51:50.153Z,25.50
2024-02-28T12:54:17.114Z,26.80
2024-02-28T12:56:46.936Z,27.30
2024-02-28T12:59:14.089Z,26.27
2024-02-28T13:01:40.864Z,33.65
2024-02-28T13:04:08.104Z,26.67
2024-02-28T13:06:34.738Z,39.03
2024-02-28T13:09:01.353Z,27.85
2024-02-28T13:11:27.890Z,29.33
2024-02-28T13:13:54.486Z,28.98
2024-02-28T13:16:22.760Z,28.48
2024-02-28T13:18:49.416Z,28.35
2024-02-28T13:21:16.126Z,24.75
2024-02-28T13:23:42.784Z,23.33
2024-02-28T13:26:09.310Z,25.00
2024-02-28T13:28:37.003Z,23.55
2024-02-28T13:31:05.337Z,24.00
2024-02-28T13:33:32.782Z,23.85
2024-02-28T13:35:59.570Z,21.27
2024-02-28T13:38:26.310Z,26.48
2024-02-28T13:40:52.805Z,21.63
2024-02-28T13:43:19.689Z,18.00
2024-02-28T13:45:48.069Z,22.10
2024-02-28T13:48:22.429Z,19.55
2024-02-28T13:50:50.025Z,23.65
2024-02-28T13:53:16.988Z,19.55
2024-02-28T13:55:44.224Z,21.00
2024-02-28T13:58:12.405Z,23.15
2024-02-28T14:00:39.544Z,20.45
2024-02-28T14:03:09.695Z,23.55
2024-02-28T14:05:36.265Z,22.80
2024-02-28T14:08:04.799Z,21.67
2024-02-28T14:10:31.612Z,22.80
2024-02-28T14:12:59.350Z,21.25
2024-02-28T14:15:29.535Z,21.85
2024-02-28T14:17:56.535Z,17.83
2024-02-28T14:20:23.234Z,21.52
2024-02-28T14:22:49.926Z,20.27
2024-02-28T14:25:17.471Z,23.63
2024-02-28T14:27:45.356Z,18.58
2024-02-28T14:30:12.738Z,20.25
2024-02-28T14:32:39.846Z,19.35
2024-02-28T14:35:07.680Z,21.00
2024-02-28T14:37:35.063Z,21.15
2024-02-28T14:40:05.517Z,21.98
2024-02-28T14:42:34.324Z,15.60
2024-02-28T14:45:00.916Z,18.30
2024-02-28T14:47:27.375Z,20.33
2024-02-28T14:49:54.037Z,15.80
2024-02-28T14:52:20.595Z,18.30
2024-02-28T14:54:47.701Z,19.23
2024-02-28T14:57:17.185Z,18.52
2024-02-28T14:59:44.640Z,15.43
2024-02-28T15:02:14.168Z,20.42
2024-02-28T15:04:40.638Z,20.52
2024-02-28T15:07:07.186Z,17.35
2024-02-28T15:09:34.802Z,19.95
2024-02-28T15:12:01.691Z,14.55
2024-02-28T15:14:28.217Z,13.15
2024-02-28T15:16:54.746Z,20.17
2024-02-28T15:19:21.484Z,15.95
2024-02-28T15:21:48.112Z,14.35
2024-02-28T15:24:15.640Z,17.38
2024-02-28T15:26:46.643Z,17.95
2024-02-28T15:29:15.347Z,18.35
2024-02-28T15:31:41.914Z,16.00
2024-02-28T15:34:08.583Z,18.80
2024-02-28T15:36:35.397Z,16.27
2024-02-28T15:39:02.125Z,18.73
2024-02-28T15:41:29.212Z,13.77
2024-02-28T15:43:56.850Z,16.80
2024-02-28T15:46:23.407Z,14.60
2024-02-28T15:48:50.015Z,12.57
2024-02-28T15:51:17.336Z,19.30
2024-02-28T15:53:43.833Z,19.38
2024-02-28T15:56:10.369Z,23.75
2024-02-28T15:58:40.738Z,14.57
2024-02-28T16:01:07.490Z,16.52
2024-02-28T16:03:34.117Z,17.67
2024-02-28T16:06:00.650Z,14.02
2024-02-28T16:08:27.282Z,15.88
2024-02-28T16:10:53.997Z,17.08
2024-02-28T16:13:20.549Z,18.25
2024-02-28T16:15:47.149Z,16.52
2024-02-28T16:18:14.786Z,14.20
2024-02-28T16:20:43.503Z,14.93
2024-02-28T16:23:10.195Z,15.93
2024-02-28T16:25:36.834Z,19.60
2024-02-28T16:28:06.027Z,15.50
2024-02-28T16:30:32.703Z,16.02
2024-02-28T16:33:00.076Z,14.23
2024-02-28T16:35:26.757Z,11.63
2024-02-28T16:37:53.394Z,15.05
2024-02-28T16:40:19.971Z,15.20
2024-02-28T16:42:46.568Z,15.18
2024-02-28T16:45:13.288Z,13.77
2024-02-28T16:47:40.440Z,14.75
2024-02-28T16:50:07.009Z,13.45
2024-02-28T16:52:33.994Z,16.27
2024-02-28T16:55:00.686Z,14.52
2024-02-28T16:57:28.379Z,17.38
2024-02-28T16:59:55.055Z,14.15
2024-02-28T17:02:24.383Z,14.45
2024-02-28T17:04:51.049Z,14.13
2024-02-28T17:07:20.268Z,17.15
2024-02-28T17:09:47.190Z,15.60
2024-02-28T17:12:15.765Z,15.45
2024-02-28T17:14:42.432Z,14.32
2024-02-28T17:17:12.999Z,13.75
2024-02-28T17:19:39.657Z,18.42
2024-02-28T17:22:07.935Z,13.35
2024-02-28T17:24:35.792Z,12.63
2024-02-28T17:27:02.792Z,12.93
2024-02-28T17:29:29.554Z,11.32
2024-02-28T17:31:56.296Z,12.90
2024-02-28T17:34:23.004Z,14.07
2024-02-28T17:36:49.708Z,14.48
2024-02-28T17:39:19.890Z,13.60
2024-02-28T17:41:48.856Z,12.80
2024-02-28T17:44:15.733Z,12.35
2024-02-28T17:46:46.423Z,20.63
2024-02-28T17:49:25.134Z,27.90
2024-02-28T17:51:51.889Z,19.67
2024-02-28T17:54:18.527Z,15.27
2024-02-28T17:56:46.898Z,15.07
2024-02-28T17:59:13.680Z,15.13
2024-02-28T18:01:41.011Z,44.75
2024-02-28T18:04:10.325Z,25.10
2024-02-28T18:06:37.418Z,30.88
2024-02-28T18:09:04.092Z,15.02
2024-02-28T18:11:32.709Z,14.60
2024-02-28T18:13:59.655Z,17.60
2024-02-28T18:16:26.452Z,17.63
2024-02-28T18:18:54.820Z,13.07
2024-02-28T18:21:21.673Z,15.13
2024-02-28T18:23:48.463Z,18.70
2024-02-28T18:26:19.421Z,12.98
2024-02-28T18:28:45.994Z,15.77
2024-02-28T18:31:12.577Z,16.95
2024-02-28T18:33:39.365Z,11.48
2024-02-28T18:36:06.167Z,15.90
2024-02-28T18:38:33.229Z,16.75
2024-02-28T18:41:00.026Z,17.02
2024-02-28T18:43:26.728Z,18.63
2024-02-28T18:45:53.424Z,10.32
2024-02-28T18:48:20.460Z,11.15
2024-02-28T18:50:46.938Z,8.93
2024-02-28T18:53:13.534Z,10.75
2024-02-28T18:55:40.074Z,16.33
2024-02-28T18:58:07.164Z,9.48
2024-02-28T19:00:34.333Z,10.15
2024-02-28T19:03:03.997Z,10.80
2024-02-28T19:05:30.573Z,8.43
2024-02-28T19:07:57.184Z,11.18
2024-02-28T19:10:23.736Z,8.80
2024-02-28T19:12:50.446Z,13.50
2024-02-28T19:15:16.959Z,14.32
2024-02-28T19:17:43.817Z,15.57
2024-02-28T19:20:12.740Z,16.15
2024-02-28T19:22:39.840Z,13.95
2024-02-28T19:25:06.597Z,12.93
2024-02-28T19:27:33.379Z,10.65
2024-02-28T19:30:00.194Z,13.85
2024-02-28T19:32:27.456Z,10.20
2024-02-28T19:34:54.796Z,8.93
2024-02-28T19:37:21.736Z,9.40
2024-02-28T19:39:48.324Z,9.10
2024-02-28T19:42:15.429Z,8.73
2024-02-28T19:44:42.173Z,7.78
2024-02-28T19:47:08.892Z,10.00
2024-02-28T19:49:37.512Z,9.05
2024-02-28T19:52:05.264Z,8.40
2024-02-28T19:54:34.427Z,8.23
2024-02-28T19:57:01.189Z,9.75
2024-02-28T19:59:27.799Z,8.38
2024-02-28T20:01:54.626Z,12.50
2024-02-28T20:04:21.357Z,11.30
2024-02-28T20:06:48.941Z,8.65
2024-02-28T20:09:15.493Z,9.02
2024-02-28T20:11:42.117Z,13.38
2024-02-28T20:14:10.125Z,9.45
2024-02-28T20:16:40.772Z,11.55
2024-02-28T20:19:08.037Z,11.25
2024-02-28T20:21:34.995Z,11.63
2024-02-28T20:24:03.627Z,11.63
2024-02-28T20:26:31.536Z,12.25
2024-02-28T20:29:17.505Z,12.68
2024-02-28T20:31:44.515Z,15.30
2024-02-28T20:34:11.614Z,15.25
2024-02-28T20:36:40.577Z,12.18
2024-02-28T20:39:10.539Z,11.45
2024-02-28T20:41:37.651Z,10.73
2024-02-28T20:44:10.740Z,11.10
2024-02-28T20:46:38.238Z,13.00
2024-02-28T20:49:05.017Z,17.13
2024-02-28T20:51:32.011Z,15.77
2024-02-28T20:54:01.648Z,14.68
2024-02-28T20:56:29.312Z,14.13
2024-02-28T20:58:56.844Z,11.85
2024-02-28T21:01:28.609Z,13.38
2024-02-28T21:04:03.283Z,17.25
2024-02-28T21:06:31.121Z,12.32
2024-02-28T21:08:59.670Z,13.77
2024-02-28T21:11:26.464Z,15.60
2024-02-28T21:13:57.801Z,17.05
2024-02-28T21:16:29.596Z,15.65
2024-02-28T21:19:04.521Z,15.40
2024-02-28T21:21:31.364Z,13.32
2024-02-28T21:23:58.189Z,17.13
2024-02-28T21:26:25.121Z,15.57
2024-02-28T21:28:51.852Z,12.85
2024-02-28T21:31:18.569Z,17.83
2024-02-28T21:33:46.407Z,12.35
2024-02-28T21:36:13.346Z,15.73
2024-02-28T21:38:39.969Z,12.52
2024-02-28T21:41:06.939Z,18.40
2024-02-28T21:43:33.687Z,13.65
2024-02-28T21:46:00.508Z,15.15
2024-02-28T21:48:27.170Z,14.93
2024-02-28T21:50:53.699Z,16.95
2024-02-28T21:53:20.282Z,16.90
2024-02-28T21:55:47.339Z,18.83
2024-02-28T21:58:16.663Z,16.67
2024-02-28T22:00:43.474Z,13.13
2024-02-28T22:03:11.796Z,15.95
2024-02-28T22:05:38.423Z,14.75
2024-02-28T22:08:06.445Z,17.25
2024-02-28T22:10:33.123Z,18.00
2024-02-28T22:13:00.069Z,17.15
2024-02-28T22:15:26.752Z,15.48
2024-02-28T22:17:54.554Z,18.15
2024-02-28T22:20:21.129Z,18.08
2024-02-28T22:22:47.609Z,18.20
2024-02-28T22:25:14.351Z,13.15
2024-02-28T22:27:41.053Z,14.98
2024-02-28T22:30:08.140Z,15.90
2024-02-28T22:32:34.661Z,16.17
2024-02-28T22:35:01.276Z,19.55
2024-02-28T22:37:27.843Z,16.38
2024-02-28T22:39:54.550Z,17.40
2024-02-28T22:42:21.674Z,19.60
2024-02-28T22:44:48.213Z,16.48
2024-02-28T22:47:14.747Z,20.23
2024-02-28T22:49:41.617Z,16.75
2024-02-28T22:52:08.380Z,19.15
2024-02-28T22:54:35.516Z,20.65
2024-02-28T22:57:02.174Z,20.75
2024-02-28T22:59:29.983Z,18.63
2024-02-28T23:01:57.323Z,18.58
2024-02-28T23:04:23.972Z,17.70
2024-02-28T23:06:50.447Z,20.00
2024-02-28T23:09:17.124Z,17.38
2024-02-28T23:11:44.135Z,23.75
2024-02-28T23:14:12.959Z,22.98
2024-02-28T23:16:39.498Z,21.83
2024-02-28T23:19:06.076Z,20.75
2024-02-28T23:21:38.729Z,20.65
2024-02-28T23:24:08.775Z,22.53
2024-02-28T23:26:36.257Z,20.92
2024-02-28T23:29:03.623Z,21.58
2024-02-28T23:31:30.198Z,20.45
2024-02-28T23:33:56.883Z,17.52
2024-02-28T23:36:23.420Z,19.50
2024-02-28T23:38:50.137Z,23.05
2024-02-28T23:41:19.490Z,22.27
2024-02-28T23:43:46.097Z,19.52
2024-02-28T23:46:12.732Z,22.05
2024-02-28T23:48:39.474Z,22.58
2024-02-28T23:51:06.031Z,25.20
2024-02-28T23:53:32.522Z,23.73
2024-02-28T23:55:59.080Z,25.83
2024-02-28T23:58:25.803Z,23.35
